Terminal Aerodrome Forecast
Issued by NWS Paducah, KY

Home | Current Version | Previous Version | Text Only | Print | Product List | Glossary On
Versions: 1 2 3 4 5 6 7 8 9 10 11 12 13 14 15 16 17 18 19 20 21 22 23
000
FTUS43 KPAH 260423 AAA
TAFEVV
TAF AMD
KEVV 260423Z 2604/2624 15006KT P6SM BKN040
     FM261100 16008KT 6SM -SHRA BR BKN025
     FM261700 20012G20KT P6SM OVC040
     FM262000 20012G18KT P6SM BKN050=

USA.gov is the U.S. government's official web portal to all federal, state and local government web resources and services.